Terminal Aerodrome Forecast
Issued by NWS

Home | Current Version | Previous Version | Graphics & Text | Print | Product List | Glossary On
Versions: 1 2 3 4 5 6 7 8 9 10 11 12 13 14 15 16 17 18 19 20 21 22
000
FTUS43 KMPX 052340
TAFAXN
TAF
KAXN 052340Z 0600/0624 16011G18KT P6SM SCT050 BKN150
     FM060300 14008KT 5SM SHRA BR BKN035 OVC060
      TEMPO 0603/0607 3SM TSRA OVC025CB
     FM060800 03010KT 2SM SHRA BR BKN006 OVC012
     FM061400 01012KT 5SM -SHRA BR SCT006 OVC020
     FM061800 36012G20KT P6SM SCT012 BKN035=

USA.gov is the U.S. government's official web portal to all federal, state and local government web resources and services.